Aviation Digital Data Service (ADDS)

Output produced by METARs form (0120 UTC 24 May 2019)
found at http://www.aviationweather.gov/metar/data/
 
KTUS 232336Z 2400/2424 33007KT P6SM SKC 
     FM240300 23005KT P6SM SKC 
     FM240700 15007KT P6SM SKC 
     FM242000 31006KT P6SM SKC